sensor_id;sensor_type;location;lat;lon;timestamp;P1;durP1;ratioP1;P2;durP2;ratioP2
17079;SDS011;8655;57.106;-2.088;2024-02-04T02:52:06;2.37;;;0.90;;
17079;SDS011;8655;57.106;-2.088;2024-02-04T02:54:32;2.70;;;0.90;;
17079;SDS011;8655;57.106;-2.088;2024-02-04T02:56:58;1.80;;;0.93;;
17079;SDS011;8655;57.106;-2.088;2024-02-04T02:59:23;1.30;;;1.00;;
17079;SDS011;8655;57.106;-2.088;2024-02-04T03:01:49;1.40;;;0.77;;
17079;SDS011;8655;57.106;-2.088;2024-02-04T03:04:15;1.30;;;0.87;;
17079;SDS011;8655;57.106;-2.088;2024-02-04T03:06:40;1.23;;;0.70;;
17079;SDS011;8655;57.106;-2.088;2024-02-04T03:09:06;2.33;;;0.90;;
17079;SDS011;8655;57.106;-2.088;2024-02-04T03:11:32;1.47;;;0.80;;
17079;SDS011;8655;57.106;-2.088;2024-02-04T03:13:58;1.23;;;0.77;;
17079;SDS011;8655;57.106;-2.088;2024-02-04T03:16:24;1.63;;;0.90;;
17079;SDS011;8655;57.106;-2.088;2024-02-04T03:18:49;1.63;;;1.03;;
17079;SDS011;8655;57.106;-2.088;2024-02-04T03:21:17;1.83;;;1.00;;
17079;SDS011;8655;57.106;-2.088;2024-02-04T03:23:43;2.20;;;0.90;;
17079;SDS011;8655;57.106;-2.088;2024-02-04T03:26:16;2.33;;;0.90;;
17079;SDS011;8655;57.106;-2.088;2024-02-04T03:28:44;2.53;;;1.07;;
17079;SDS011;8655;57.106;-2.088;2024-02-04T03:31:09;1.87;;;0.90;;
17079;SDS011;8655;57.106;-2.088;2024-02-04T03:33:35;1.60;;;0.93;;
17079;SDS011;8655;57.106;-2.088;2024-02-04T03:36:01;3.47;;;1.00;;
17079;SDS011;8655;57.106;-2.088;2024-02-04T03:38:27;2.53;;;1.30;;
17079;SDS011;8655;57.106;-2.088;2024-02-04T03:40:52;1.63;;;0.80;;
17079;SDS011;8655;57.106;-2.088;2024-02-04T03:43:19;3.17;;;1.00;;
17079;SDS011;8655;57.106;-2.088;2024-02-04T03:45:45;3.67;;;1.10;;
17079;SDS011;8655;57.106;-2.088;2024-02-04T03:48:10;1.90;;;0.90;;
17079;SDS011;8655;57.106;-2.088;2024-02-04T03:50:36;2.67;;;1.07;;
17079;SDS011;8655;57.106;-2.088;2024-02-04T03:53:02;2.77;;;1.20;;
17079;SDS011;8655;57.106;-2.088;2024-02-04T03:55:27;1.53;;;0.90;;
17079;SDS011;8655;57.106;-2.088;2024-02-04T03:57:54;2.93;;;0.90;;
17079;SDS011;8655;57.106;-2.088;2024-02-04T04:00:22;2.13;;;1.00;;
17079;SDS011;8655;57.106;-2.088;2024-02-04T04:02:48;2.53;;;1.03;;
17079;SDS011;8655;57.106;-2.088;2024-02-04T04:05:13;1.87;;;0.77;;
17079;SDS011;8655;57.106;-2.088;2024-02-04T04:07:39;3.67;;;1.10;;
17079;SDS011;8655;57.106;-2.088;2024-02-04T04:10:05;2.47;;;1.23;;
17079;SDS011;8655;57.106;-2.088;2024-02-04T04:12:31;2.43;;;1.20;;
17079;SDS011;8655;57.106;-2.088;2024-02-04T04:14:57;2.27;;;1.10;;
17079;SDS011;8655;57.106;-2.088;2024-02-04T04:17:23;2.63;;;1.20;;
17079;SDS011;8655;57.106;-2.088;2024-02-04T04:19:49;3.00;;;1.10;;
17079;SDS011;8655;57.106;-2.088;2024-02-04T04:22:14;2.97;;;1.10;;
17079;SDS011;8655;57.106;-2.088;2024-02-04T04:24:40;1.83;;;0.90;;
17079;SDS011;8655;57.106;-2.088;2024-02-04T04:27:06;2.03;;;1.20;;
17079;SDS011;8655;57.106;-2.088;2024-02-04T04:29:31;2.40;;;1.00;;
17079;SDS011;8655;57.106;-2.088;2024-02-04T04:31:57;3.63;;;1.10;;
17079;SDS011;8655;57.106;-2.088;2024-02-04T04:34:23;2.90;;;1.10;;
17079;SDS011;8655;57.106;-2.088;2024-02-04T04:36:48;1.67;;;0.87;;
17079;SDS011;8655;57.106;-2.088;2024-02-04T04:39:14;2.50;;;0.90;;
17079;SDS011;8655;57.106;-2.088;2024-02-04T04:41:41;1.33;;;0.80;;
17079;SDS011;8655;57.106;-2.088;2024-02-04T04:44:08;2.10;;;1.17;;
17079;SDS011;8655;57.106;-2.088;2024-02-04T04:46:37;2.40;;;0.90;;
17079;SDS011;8655;57.106;-2.088;2024-02-04T04:49:04;2.10;;;1.10;;
17079;SDS011;8655;57.106;-2.088;2024-02-04T04:51:29;1.87;;;0.87;;
17079;SDS011;8655;57.106;-2.088;2024-02-04T04:53:55;5.40;;;1.17;;
17079;SDS011;8655;57.106;-2.088;2024-02-04T04:56:21;1.70;;;0.97;;
17079;SDS011;8655;57.106;-2.088;2024-02-04T04:58:47;1.30;;;1.00;;
17079;SDS011;8655;57.106;-2.088;2024-02-04T05:01:13;1.30;;;0.80;;
17079;SDS011;8655;57.106;-2.088;2024-02-04T05:03:39;2.57;;;1.03;;
17079;SDS011;8655;57.106;-2.088;2024-02-04T05:06:05;3.20;;;1.17;;
17079;SDS011;8655;57.106;-2.088;2024-02-04T05:08:31;2.60;;;1.20;;
17079;SDS011;8655;57.106;-2.088;2024-02-04T05:10:57;3.70;;;1.00;;
17079;SDS011;8655;57.106;-2.088;2024-02-04T05:13:22;3.13;;;1.10;;
17079;SDS011;8655;57.106;-2.088;2024-02-04T05:15:48;2.47;;;1.00;;
17079;SDS011;8655;57.106;-2.088;2024-02-04T05:18:14;1.33;;;0.90;;
17079;SDS011;8655;57.106;-2.088;2024-02-04T05:20:39;2.40;;;0.87;;
17079;SDS011;8655;57.106;-2.088;2024-02-04T05:23:05;2.03;;;0.87;;
17079;SDS011;8655;57.106;-2.088;2024-02-04T05:25:31;1.23;;;0.87;;
17079;SDS011;8655;57.106;-2.088;2024-02-04T05:27:56;2.97;;;1.20;;
17079;SDS011;8655;57.106;-2.088;2024-02-04T05:30:22;2.00;;;0.90;;
17079;SDS011;8655;57.106;-2.088;2024-02-04T05:32:48;1.37;;;0.97;;
17079;SDS011;8655;57.106;-2.088;2024-02-04T05:35:13;3.10;;;1.20;;
17079;SDS011;8655;57.106;-2.088;2024-02-04T05:37:39;2.00;;;0.90;;
17079;SDS011;8655;57.106;-2.088;2024-02-04T05:40:05;3.30;;;1.00;;
17079;SDS011;8655;57.106;-2.088;2024-02-04T05:42:31;2.27;;;1.17;;
17079;SDS011;8655;57.106;-2.088;2024-02-04T05:44:57;1.37;;;0.87;;
17079;SDS011;8655;57.106;-2.088;2024-02-04T05:47:23;2.13;;;0.70;;
17079;SDS011;8655;57.106;-2.088;2024-02-04T05:49:49;2.77;;;1.17;;
17079;SDS011;8655;57.106;-2.088;2024-02-04T05:52:15;1.33;;;0.80;;
17079;SDS011;8655;57.106;-2.088;2024-02-04T05:54:41;2.23;;;0.90;;
17079;SDS011;8655;57.106;-2.088;2024-02-04T05:57:06;1.03;;;0.80;;
17079;SDS011;8655;57.106;-2.088;2024-02-04T05:59:33;1.73;;;0.83;;
17079;SDS011;8655;57.106;-2.088;2024-02-04T06:01:59;3.50;;;0.90;;
17079;SDS011;8655;57.106;-2.088;2024-02-04T06:04:25;2.03;;;1.10;;
17079;SDS011;8655;57.106;-2.088;2024-02-04T06:06:50;1.77;;;1.00;;
17079;SDS011;8655;57.106;-2.088;2024-02-04T06:09:16;1.43;;;0.70;;
17079;SDS011;8655;57.106;-2.088;2024-02-04T06:11:45;1.93;;;0.80;;
17079;SDS011;8655;57.106;-2.088;2024-02-04T06:14:11;1.87;;;1.07;;
17079;SDS011;8655;57.106;-2.088;2024-02-04T06:16:38;1.70;;;0.90;;
17079;SDS011;8655;57.106;-2.088;2024-02-04T06:19:03;2.23;;;1.03;;
17079;SDS011;8655;57.106;-2.088;2024-02-04T06:21:30;1.13;;;0.80;;
17079;SDS011;8655;57.106;-2.088;2024-02-04T06:23:56;1.73;;;0.97;;
17079;SDS011;8655;57.106;-2.088;2024-02-04T06:26:22;2.50;;;0.80;;
17079;SDS011;8655;57.106;-2.088;2024-02-04T06:28:48;0.90;;;0.70;;
17079;SDS011;8655;57.106;-2.088;2024-02-04T06:31:15;2.13;;;1.00;;
17079;SDS011;8655;57.106;-2.088;2024-02-04T06:33:41;1.97;;;0.87;;
17079;SDS011;8655;57.106;-2.088;2024-02-04T06:36:10;2.27;;;0.77;;
17079;SDS011;8655;57.106;-2.088;2024-02-04T06:38:36;0.97;;;0.70;;
17079;SDS011;8655;57.106;-2.088;2024-02-04T06:41:02;1.33;;;0.80;;
17079;SDS011;8655;57.106;-2.088;2024-02-04T06:43:28;1.57;;;0.93;;
17079;SDS011;8655;57.106;-2.088;2024-02-04T06:45:53;1.20;;;0.80;;
17079;SDS011;8655;57.106;-2.088;2024-02-04T06:48:19;1.40;;;0.83;;
17079;SDS011;8655;57.106;-2.088;2024-02-04T06:50:45;2.17;;;1.10;;
17079;SDS011;8655;57.106;-2.088;2024-02-04T06:53:13;1.10;;;0.80;;
17079;SDS011;8655;57.106;-2.088;2024-02-04T06:55:39;1.03;;;0.80;;
17079;SDS011;8655;57.106;-2.088;2024-02-04T06:58:05;0.90;;;0.80;;
17079;SDS011;8655;57.106;-2.088;2024-02-04T07:00:30;0.93;;;0.60;;
17079;SDS011;8655;57.106;-2.088;2024-02-04T07:02:56;1.00;;;0.70;;
17079;SDS011;8655;57.106;-2.088;2024-02-04T07:05:22;1.63;;;0.80;;
17079;SDS011;8655;57.106;-2.088;2024-02-04T07:07:48;1.07;;;0.77;;
17079;SDS011;8655;57.106;-2.088;2024-02-04T07:10:15;1.47;;;0.77;;
17079;SDS011;8655;57.106;-2.088;2024-02-04T07:12:41;1.60;;;0.83;;
17079;SDS011;8655;57.106;-2.088;2024-02-04T07:15:07;1.00;;;0.80;;
17079;SDS011;8655;57.106;-2.088;2024-02-04T07:17:33;1.50;;;0.90;;
17079;SDS011;8655;57.106;-2.088;2024-02-04T07:19:59;1.50;;;0.70;;
17079;SDS011;8655;57.106;-2.088;2024-02-04T07:22:26;1.20;;;0.80;;
17079;SDS011;8655;57.106;-2.088;2024-02-04T07:24:52;2.03;;;0.90;;
17079;SDS011;8655;57.106;-2.088;2024-02-04T07:27:17;0.97;;;0.60;;
17079;SDS011;8655;57.106;-2.088;2024-02-04T07:29:43;1.43;;;0.80;;
17079;SDS011;8655;57.106;-2.088;2024-02-04T07:32:09;1.37;;;0.87;;
17079;SDS011;8655;57.106;-2.088;2024-02-04T07:34:35;2.93;;;0.90;;
17079;SDS011;8655;57.106;-2.088;2024-02-04T07:37:00;0.73;;;0.70;;
17079;SDS011;8655;57.106;-2.088;2024-02-04T07:39:26;1.77;;;0.80;;
17079;SDS011;8655;57.106;-2.088;2024-02-04T07:41:52;1.73;;;1.00;;
17079;SDS011;8655;57.106;-2.088;2024-02-04T07:44:19;1.93;;;0.80;;
17079;SDS011;8655;57.106;-2.088;2024-02-04T07:46:44;0.77;;;0.70;;
17079;SDS011;8655;57.106;-2.088;2024-02-04T07:49:10;0.93;;;0.80;;
17079;SDS011;8655;57.106;-2.088;2024-02-04T07:51:36;1.87;;;0.90;;
17079;SDS011;8655;57.106;-2.088;2024-02-04T07:54:02;0.90;;;0.60;;
17079;SDS011;8655;57.106;-2.088;2024-02-04T07:56:29;1.30;;;0.80;;
17079;SDS011;8655;57.106;-2.088;2024-02-04T07:58:54;1.00;;;0.70;;
17079;SDS011;8655;57.106;-2.088;2024-02-04T08:01:20;1.13;;;0.73;;
17079;SDS011;8655;57.106;-2.088;2024-02-04T08:03:46;1.00;;;0.70;;
17079;SDS011;8655;57.106;-2.088;2024-02-04T08:06:12;1.63;;;0.80;;
17079;SDS011;8655;57.106;-2.088;2024-02-04T08:08:38;1.30;;;0.80;;
17079;SDS011;8655;57.106;-2.088;2024-02-04T08:11:03;1.17;;;0.80;;
17079;SDS011;8655;57.106;-2.088;2024-02-04T08:13:29;1.30;;;0.80;;
17079;SDS011;8655;57.106;-2.088;2024-02-04T08:15:55;0.93;;;0.70;;
17079;SDS011;8655;57.106;-2.088;2024-02-04T08:18:20;1.20;;;0.60;;
17079;SDS011;8655;57.106;-2.088;2024-02-04T08:20:46;1.10;;;0.60;;
17079;SDS011;8655;57.106;-2.088;2024-02-04T08:23:12;1.13;;;0.73;;
17079;SDS011;8655;57.106;-2.088;2024-02-04T08:25:37;1.80;;;0.80;;
17079;SDS011;8655;57.106;-2.088;2024-02-04T08:28:03;2.17;;;0.60;;
17079;SDS011;8655;57.106;-2.088;2024-02-04T08:30:29;2.20;;;1.47;;
17079;SDS011;8655;57.106;-2.088;2024-02-04T08:32:55;0.60;;;0.60;;
17079;SDS011;8655;57.106;-2.088;2024-02-04T08:35:20;1.53;;;0.90;;
17079;SDS011;8655;57.106;-2.088;2024-02-04T08:37:46;1.27;;;0.73;;
17079;SDS011;8655;57.106;-2.088;2024-02-04T08:40:12;1.23;;;0.70;;
17079;SDS011;8655;57.106;-2.088;2024-02-04T08:42:38;2.13;;;0.90;;
17079;SDS011;8655;57.106;-2.088;2024-02-04T08:45:04;1.40;;;0.90;;
17079;SDS011;8655;57.106;-2.088;2024-02-04T08:47:30;2.30;;;0.73;;
17079;SDS011;8655;57.106;-2.088;2024-02-04T08:49:56;0.75;;;0.65;;
17079;SDS011;8655;57.106;-2.088;2024-02-04T08:52:22;1.63;;;0.80;;
17079;SDS011;8655;57.106;-2.088;2024-02-04T08:54:49;0.93;;;0.60;;
17079;SDS011;8655;57.106;-2.088;2024-02-04T08:57:15;1.73;;;0.80;;
17079;SDS011;8655;57.106;-2.088;2024-02-04T08:59:41;2.07;;;0.93;;
17079;SDS011;8655;57.106;-2.088;2024-02-04T09:02:07;1.00;;;0.60;;
17079;SDS011;8655;57.106;-2.088;2024-02-04T09:04:33;1.50;;;0.70;;
17079;SDS011;8655;57.106;-2.088;2024-02-04T09:07:05;1.27;;;0.70;;
17079;SDS011;8655;57.106;-2.088;2024-02-04T09:09:32;1.30;;;0.70;;
17079;SDS011;8655;57.106;-2.088;2024-02-04T09:11:57;1.20;;;0.75;;
17079;SDS011;8655;57.106;-2.088;2024-02-04T09:14:23;1.27;;;0.70;;
17079;SDS011;8655;57.106;-2.088;2024-02-04T09:16:49;1.08;;;0.60;;
17079;SDS011;8655;57.106;-2.088;2024-02-04T09:19:14;2.40;;;0.93;;
17079;SDS011;8655;57.106;-2.088;2024-02-04T09:21:40;0.87;;;0.60;;
17079;SDS011;8655;57.106;-2.088;2024-02-04T09:24:07;1.35;;;0.80;;
17079;SDS011;8655;57.106;-2.088;2024-02-04T09:26:32;1.67;;;0.80;;
17079;SDS011;8655;57.106;-2.088;2024-02-04T09:28:58;0.93;;;0.60;;
17079;SDS011;8655;57.106;-2.088;2024-02-04T09:31:24;1.30;;;0.70;;
17079;SDS011;8655;57.106;-2.088;2024-02-04T09:33:50;1.73;;;0.90;;
17079;SDS011;8655;57.106;-2.088;2024-02-04T09:36:15;1.13;;;0.67;;
17079;SDS011;8655;57.106;-2.088;2024-02-04T09:38:41;0.90;;;0.60;;
17079;SDS011;8655;57.106;-2.088;2024-02-04T09:41:07;1.07;;;0.67;;
17079;SDS011;8655;57.106;-2.088;2024-02-04T09:43:33;1.57;;;0.77;;
17079;SDS011;8655;57.106;-2.088;2024-02-04T09:46:00;1.23;;;0.90;;
17079;SDS011;8655;57.106;-2.088;2024-02-04T09:48:27;1.73;;;0.73;;
17079;SDS011;8655;57.106;-2.088;2024-02-04T09:50:56;1.27;;;0.60;;
17079;SDS011;8655;57.106;-2.088;2024-02-04T09:53:25;1.37;;;0.60;;
17079;SDS011;8655;57.106;-2.088;2024-02-04T09:56:01;1.50;;;0.80;;
17079;SDS011;8655;57.106;-2.088;2024-02-04T09:58:28;1.40;;;0.80;;
17079;SDS011;8655;57.106;-2.088;2024-02-04T10:00:54;0.90;;;0.60;;
17079;SDS011;8655;57.106;-2.088;2024-02-04T10:03:21;1.40;;;0.80;;
17079;SDS011;8655;57.106;-2.088;2024-02-04T10:05:47;1.50;;;0.60;;
17079;SDS011;8655;57.106;-2.088;2024-02-04T10:08:13;1.10;;;0.70;;
17079;SDS011;8655;57.106;-2.088;2024-02-04T10:10:39;0.70;;;0.70;;
17079;SDS011;8655;57.106;-2.088;2024-02-04T10:13:08;0.90;;;0.60;;
17079;SDS011;8655;57.106;-2.088;2024-02-04T10:15:34;1.33;;;0.60;;
17079;SDS011;8655;57.106;-2.088;2024-02-04T10:18:02;1.20;;;0.80;;
17079;SDS011;8655;57.106;-2.088;2024-02-04T10:20:29;1.57;;;0.80;;
17079;SDS011;8655;57.106;-2.088;2024-02-04T10:22:55;0.43;;;0.43;;
17079;SDS011;8655;57.106;-2.088;2024-02-04T10:25:21;0.93;;;0.60;;
17079;SDS011;8655;57.106;-2.088;2024-02-04T10:27:47;1.30;;;0.90;;
17079;SDS011;8655;57.106;-2.088;2024-02-04T10:30:13;0.60;;;0.43;;
17079;SDS011;8655;57.106;-2.088;2024-02-04T10:32:39;0.97;;;0.50;;
17079;SDS011;8655;57.106;-2.088;2024-02-04T10:35:07;1.33;;;0.70;;
17079;SDS011;8655;57.106;-2.088;2024-02-04T10:37:33;1.17;;;0.67;;
17079;SDS011;8655;57.106;-2.088;2024-02-04T10:40:00;1.23;;;0.73;;
17079;SDS011;8655;57.106;-2.088;2024-02-04T10:42:26;1.13;;;0.57;;
17079;SDS011;8655;57.106;-2.088;2024-02-04T10:44:57;1.20;;;0.80;;
17079;SDS011;8655;57.106;-2.088;2024-02-04T10:47:24;1.17;;;0.63;;
17079;SDS011;8655;57.106;-2.088;2024-02-04T10:49:55;1.33;;;0.60;;
17079;SDS011;8655;57.106;-2.088;2024-02-04T10:52:24;1.03;;;0.57;;
17079;SDS011;8655;57.106;-2.088;2024-02-04T10:54:52;1.90;;;0.60;;
17079;SDS011;8655;57.106;-2.088;2024-02-04T10:57:22;0.97;;;0.70;;
17079;SDS011;8655;57.106;-2.088;2024-02-04T10:59:51;0.90;;;0.63;;
17079;SDS011;8655;57.106;-2.088;2024-02-04T11:02:17;1.03;;;0.60;;
17079;SDS011;8655;57.106;-2.088;2024-02-04T11:04:45;0.97;;;0.67;;
17079;SDS011;8655;57.106;-2.088;2024-02-04T11:07:14;0.47;;;0.40;;
17079;SDS011;8655;57.106;-2.088;2024-02-04T11:09:42;0.50;;;0.40;;
17079;SDS011;8655;57.106;-2.088;2024-02-04T11:12:11;0.87;;;0.60;;
17079;SDS011;8655;57.106;-2.088;2024-02-04T11:14:40;0.70;;;0.67;;
17079;SDS011;8655;57.106;-2.088;2024-02-04T11:25:48;0.87;;;0.50;;
17079;SDS011;8655;57.106;-2.088;2024-02-04T11:28:17;0.67;;;0.40;;
17079;SDS011;8655;57.106;-2.088;2024-02-04T11:30:44;1.10;;;0.70;;
17079;SDS011;8655;57.106;-2.088;2024-02-04T11:33:11;1.43;;;0.70;;
17079;SDS011;8655;57.106;-2.088;2024-02-04T11:35:38;0.73;;;0.40;;
17079;SDS011;8655;57.106;-2.088;2024-02-04T11:38:04;0.63;;;0.50;;
17079;SDS011;8655;57.106;-2.088;2024-02-04T11:40:39;0.93;;;0.47;;
17079;SDS011;8655;57.106;-2.088;2024-02-04T11:43:13;0.40;;;0.37;;
17079;SDS011;8655;57.106;-2.088;2024-02-04T11:45:39;0.40;;;0.40;;
17079;SDS011;8655;57.106;-2.088;2024-02-04T11:48:07;0.40;;;0.33;;
17079;SDS011;8655;57.106;-2.088;2024-02-04T11:50:33;0.50;;;0.50;;
17079;SDS011;8655;57.106;-2.088;2024-02-04T11:53:07;0.60;;;0.50;;
17079;SDS011;8655;57.106;-2.088;2024-02-04T11:55:38;0.50;;;0.40;;
17079;SDS011;8655;57.106;-2.088;2024-02-04T11:58:05;0.67;;;0.50;;
17079;SDS011;8655;57.106;-2.088;2024-02-04T12:00:35;0.67;;;0.60;;
17079;SDS011;8655;57.106;-2.088;2024-02-04T12:05:28;0.37;;;0.33;;
17079;SDS011;8655;57.106;-2.088;2024-02-04T12:07:56;0.50;;;0.40;;
17079;SDS011;8655;57.106;-2.088;2024-02-04T12:10:22;0.77;;;0.50;;
17079;SDS011;8655;57.106;-2.088;2024-02-04T12:12:47;0.47;;;0.43;;
17079;SDS011;8655;57.106;-2.088;2024-02-04T12:15:14;0.50;;;0.50;;
17079;SDS011;8655;57.106;-2.088;2024-02-04T12:17:39;0.57;;;0.40;;
17079;SDS011;8655;57.106;-2.088;2024-02-04T12:20:05;0.47;;;0.33;;
17079;SDS011;8655;57.106;-2.088;2024-02-04T12:22:31;0.80;;;0.50;;
17079;SDS011;8655;57.106;-2.088;2024-02-04T12:24:59;0.40;;;0.40;;
17079;SDS011;8655;57.106;-2.088;2024-02-04T12:27:25;0.53;;;0.50;;
17079;SDS011;8655;57.106;-2.088;2024-02-04T12:29:52;0.73;;;0.50;;
17079;SDS011;8655;57.106;-2.088;2024-02-04T12:32:17;0.67;;;0.60;;
17079;SDS011;8655;57.106;-2.088;2024-02-04T12:34:47;0.77;;;0.53;;
17079;SDS011;8655;57.106;-2.088;2024-02-04T12:37:13;0.63;;;0.50;;
17079;SDS011;8655;57.106;-2.088;2024-02-04T12:39:39;0.40;;;0.40;;
17079;SDS011;8655;57.106;-2.088;2024-02-04T12:42:05;0.37;;;0.37;;
17079;SDS011;8655;57.106;-2.088;2024-02-04T12:44:31;0.50;;;0.33;;
17079;SDS011;8655;57.106;-2.088;2024-02-04T12:46:57;0.70;;;0.40;;
17079;SDS011;8655;57.106;-2.088;2024-02-04T12:49:23;0.40;;;0.40;;
17079;SDS011;8655;57.106;-2.088;2024-02-04T12:51:48;0.40;;;0.40;;
17079;SDS011;8655;57.106;-2.088;2024-02-04T12:54:16;0.70;;;0.60;;
17079;SDS011;8655;57.106;-2.088;2024-02-04T12:56:52;0.63;;;0.50;;
17079;SDS011;8655;57.106;-2.088;2024-02-04T12:59:31;0.30;;;0.30;;
17079;SDS011;8655;57.106;-2.088;2024-02-04T13:02:02;0.40;;;0.40;;
17079;SDS011;8655;57.106;-2.088;2024-02-04T13:04:36;1.20;;;0.40;;
17079;SDS011;8655;57.106;-2.088;2024-02-04T13:07:09;0.57;;;0.57;;
17079;SDS011;8655;57.106;-2.088;2024-02-04T13:09:36;0.50;;;0.40;;
17079;SDS011;8655;57.106;-2.088;2024-02-04T13:12:06;0.43;;;0.43;;
17079;SDS011;8655;57.106;-2.088;2024-02-04T13:14:37;0.43;;;0.43;;
17079;SDS011;8655;57.106;-2.088;2024-02-04T13:17:06;0.77;;;0.50;;
17079;SDS011;8655;57.106;-2.088;2024-02-04T13:19:35;0.57;;;0.47;;
17079;SDS011;8655;57.106;-2.088;2024-02-04T13:22:02;0.67;;;0.40;;
17079;SDS011;8655;57.106;-2.088;2024-02-04T13:24:32;0.70;;;0.40;;
17079;SDS011;8655;57.106;-2.088;2024-02-04T13:26:58;0.33;;;0.30;;
17079;SDS011;8655;57.106;-2.088;2024-02-04T13:29:28;0.63;;;0.50;;
17079;SDS011;8655;57.106;-2.088;2024-02-04T13:31:54;0.60;;;0.53;;
17079;SDS011;8655;57.106;-2.088;2024-02-04T13:34:20;0.60;;;0.50;;
17079;SDS011;8655;57.106;-2.088;2024-02-04T13:36:46;0.50;;;0.50;;
17079;SDS011;8655;57.106;-2.088;2024-02-04T13:39:12;3.93;;;1.00;;
17079;SDS011;8655;57.106;-2.088;2024-02-04T13:41:38;5.40;;;1.00;;
17079;SDS011;8655;57.106;-2.088;2024-02-04T13:44:04;4.83;;;1.00;;
17079;SDS011;8655;57.106;-2.088;2024-02-04T13:46:30;5.63;;;0.80;;
17079;SDS011;8655;57.106;-2.088;2024-02-04T13:48:56;6.03;;;1.03;;
17079;SDS011;8655;57.106;-2.088;2024-02-04T13:51:22;1.60;;;0.60;;
17079;SDS011;8655;57.106;-2.088;2024-02-04T13:53:48;4.20;;;0.83;;
17079;SDS011;8655;57.106;-2.088;2024-02-04T13:56:13;3.90;;;0.70;;
17079;SDS011;8655;57.106;-2.088;2024-02-04T13:58:39;2.03;;;0.60;;
17079;SDS011;8655;57.106;-2.088;2024-02-04T14:01:05;0.77;;;0.40;;
17079;SDS011;8655;57.106;-2.088;2024-02-04T14:03:31;3.00;;;0.80;;
17079;SDS011;8655;57.106;-2.088;2024-02-04T14:05:57;1.33;;;0.83;;
17079;SDS011;8655;57.106;-2.088;2024-02-04T14:08:22;0.50;;;0.40;;
17079;SDS011;8655;57.106;-2.088;2024-02-04T14:10:48;2.43;;;0.47;;
17079;SDS011;8655;57.106;-2.088;2024-02-04T14:13:14;1.07;;;0.60;;
17079;SDS011;8655;57.106;-2.088;2024-02-04T14:15:39;1.23;;;0.60;;
17079;SDS011;8655;57.106;-2.088;2024-02-04T14:18:06;1.20;;;0.70;;
17079;SDS011;8655;57.106;-2.088;2024-02-04T14:20:32;0.93;;;0.70;;
17079;SDS011;8655;57.106;-2.088;2024-02-04T14:22:57;2.37;;;0.70;;
17079;SDS011;8655;57.106;-2.088;2024-02-04T14:25:23;2.03;;;0.40;;
17079;SDS011;8655;57.106;-2.088;2024-02-04T14:27:52;1.40;;;0.57;;
17079;SDS011;8655;57.106;-2.088;2024-02-04T14:30:17;2.47;;;0.53;;
17079;SDS011;8655;57.106;-2.088;2024-02-04T14:32:43;1.23;;;0.57;;
17079;SDS011;8655;57.106;-2.088;2024-02-04T14:35:10;2.37;;;0.50;;
17079;SDS011;8655;57.106;-2.088;2024-02-04T14:37:36;2.40;;;0.57;;
17079;SDS011;8655;57.106;-2.088;2024-02-04T14:40:04;1.00;;;0.40;;
17079;SDS011;8655;57.106;-2.088;2024-02-04T14:42:31;0.50;;;0.40;;
17079;SDS011;8655;57.106;-2.088;2024-02-04T14:44:57;0.90;;;0.40;;
17079;SDS011;8655;57.106;-2.088;2024-02-04T14:47:25;2.53;;;0.77;;
17079;SDS011;8655;57.106;-2.088;2024-02-04T14:49:54;2.47;;;0.47;;
17079;SDS011;8655;57.106;-2.088;2024-02-04T14:52:20;2.57;;;0.40;;
17079;SDS011;8655;57.106;-2.088;2024-02-04T14:54:46;1.10;;;0.50;;
17079;SDS011;8655;57.106;-2.088;2024-02-04T14:57:12;1.53;;;0.70;;
17079;SDS011;8655;57.106;-2.088;2024-02-04T14:59:38;0.37;;;0.37;;
17079;SDS011;8655;57.106;-2.088;2024-02-04T15:02:05;0.70;;;0.40;;
17079;SDS011;8655;57.106;-2.088;2024-02-04T15:04:31;1.50;;;0.60;;
17079;SDS011;8655;57.106;-2.088;2024-02-04T15:06:58;1.30;;;0.40;;
17079;SDS011;8655;57.106;-2.088;2024-02-04T15:09:23;3.07;;;0.53;;
17079;SDS011;8655;57.106;-2.088;2024-02-04T15:11:49;0.40;;;0.40;;
17079;SDS011;8655;57.106;-2.088;2024-02-04T15:14:16;1.07;;;0.50;;
17079;SDS011;8655;57.106;-2.088;2024-02-04T15:16:42;1.47;;;0.70;;
17079;SDS011;8655;57.106;-2.088;2024-02-04T15:19:08;0.63;;;0.50;;
17079;SDS011;8655;57.106;-2.088;2024-02-04T15:21:35;1.60;;;0.63;;
17079;SDS011;8655;57.106;-2.088;2024-02-04T15:24:01;1.53;;;0.67;;
17079;SDS011;8655;57.106;-2.088;2024-02-04T15:26:32;1.20;;;0.60;;
17079;SDS011;8655;57.106;-2.088;2024-02-04T15:29:01;0.47;;;0.30;;
17079;SDS011;8655;57.106;-2.088;2024-02-04T15:31:28;0.53;;;0.40;;
17079;SDS011;8655;57.106;-2.088;2024-02-04T15:33:54;0.83;;;0.57;;
17079;SDS011;8655;57.106;-2.088;2024-02-04T15:36:20;2.93;;;0.40;;
17079;SDS011;8655;57.106;-2.088;2024-02-04T15:38:46;0.93;;;0.50;;
17079;SDS011;8655;57.106;-2.088;2024-02-04T15:41:12;1.50;;;0.53;;
17079;SDS011;8655;57.106;-2.088;2024-02-04T15:43:38;0.73;;;0.40;;
17079;SDS011;8655;57.106;-2.088;2024-02-04T15:46:06;1.17;;;0.57;;
17079;SDS011;8655;57.106;-2.088;2024-02-04T15:48:36;1.07;;;0.60;;
17079;SDS011;8655;57.106;-2.088;2024-02-04T15:51:04;0.67;;;0.40;;
17079;SDS011;8655;57.106;-2.088;2024-02-04T15:53:31;0.77;;;0.37;;
17079;SDS011;8655;57.106;-2.088;2024-02-04T15:55:57;0.53;;;0.33;;
17079;SDS011;8655;57.106;-2.088;2024-02-04T15:58:25;0.40;;;0.30;;
17079;SDS011;8655;57.106;-2.088;2024-02-04T16:00:55;0.30;;;0.30;;
17079;SDS011;8655;57.106;-2.088;2024-02-04T16:03:24;0.80;;;0.40;;
17079;SDS011;8655;57.106;-2.088;2024-02-04T16:05:50;0.73;;;0.40;;
17079;SDS011;8655;57.106;-2.088;2024-02-04T16:08:15;0.43;;;0.43;;
17079;SDS011;8655;57.106;-2.088;2024-02-04T16:10:41;0.57;;;0.30;;
17079;SDS011;8655;57.106;-2.088;2024-02-04T16:13:07;0.70;;;0.40;;
17079;SDS011;8655;57.106;-2.088;2024-02-04T16:15:34;0.23;;;0.23;;
17079;SDS011;8655;57.106;-2.088;2024-02-04T16:18:04;1.07;;;0.60;;
17079;SDS011;8655;57.106;-2.088;2024-02-04T16:20:31;1.03;;;0.37;;
17079;SDS011;8655;57.106;-2.088;2024-02-04T16:23:02;1.33;;;0.30;;
17079;SDS011;8655;57.106;-2.088;2024-02-04T16:25:28;0.30;;;0.30;;
17079;SDS011;8655;57.106;-2.088;2024-02-04T16:27:56;0.77;;;0.20;;
17079;SDS011;8655;57.106;-2.088;2024-02-04T16:30:22;0.40;;;0.40;;
17079;SDS011;8655;57.106;-2.088;2024-02-04T16:32:48;0.30;;;0.30;;
17079;SDS011;8655;57.106;-2.088;2024-02-04T16:35:14;0.43;;;0.37;;
17079;SDS011;8655;57.106;-2.088;2024-02-04T16:37:40;0.37;;;0.27;;
17079;SDS011;8655;57.106;-2.088;2024-02-04T16:40:06;0.20;;;0.20;;
17079;SDS011;8655;57.106;-2.088;2024-02-04T16:42:32;0.40;;;0.33;;
17079;SDS011;8655;57.106;-2.088;2024-02-04T16:45:02;0.37;;;0.37;;
17079;SDS011;8655;57.106;-2.088;2024-02-04T16:47:28;0.27;;;0.27;;
17079;SDS011;8655;57.106;-2.088;2024-02-04T16:49:54;0.77;;;0.40;;
17079;SDS011;8655;57.106;-2.088;2024-02-04T16:52:20;0.73;;;0.40;;
17079;SDS011;8655;57.106;-2.088;2024-02-04T16:54:46;0.30;;;0.30;;
17079;SDS011;8655;57.106;-2.088;2024-02-04T16:57:11;0.97;;;0.40;;
17079;SDS011;8655;57.106;-2.088;2024-02-04T16:59:38;0.63;;;0.40;;
17079;SDS011;8655;57.106;-2.088;2024-02-04T17:02:10;0.50;;;0.40;;
17079;SDS011;8655;57.106;-2.088;2024-02-04T17:04:38;0.50;;;0.40;;
17079;SDS011;8655;57.106;-2.088;2024-02-04T17:07:06;0.47;;;0.37;;
17079;SDS011;8655;57.106;-2.088;2024-02-04T17:09:32;1.90;;;0.30;;
17079;SDS011;8655;57.106;-2.088;2024-02-04T17:11:58;0.20;;;0.20;;
17079;SDS011;8655;57.106;-2.088;2024-02-04T17:14:24;1.43;;;0.73;;
17079;SDS011;8655;57.106;-2.088;2024-02-04T17:17:04;0.30;;;0.30;;
17079;SDS011;8655;57.106;-2.088;2024-02-04T17:19:39;0.30;;;0.30;;
17079;SDS011;8655;57.106;-2.088;2024-02-04T17:22:36;0.40;;;0.40;;
17079;SDS011;8655;57.106;-2.088;2024-02-04T17:25:03;0.30;;;0.20;;
17079;SDS011;8655;57.106;-2.088;2024-02-04T17:27:39;2.17;;;0.40;;
17079;SDS011;8655;57.106;-2.088;2024-02-04T17:30:07;0.40;;;0.30;;
17079;SDS011;8655;57.106;-2.088;2024-02-04T17:32:40;0.30;;;0.30;;
17079;SDS011;8655;57.106;-2.088;2024-02-04T17:35:07;0.30;;;0.30;;
17079;SDS011;8655;57.106;-2.088;2024-02-04T17:37:35;0.77;;;0.40;;
17079;SDS011;8655;57.106;-2.088;2024-02-04T17:40:01;0.30;;;0.30;;
17079;SDS011;8655;57.106;-2.088;2024-02-04T17:42:31;0.40;;;0.40;;
17079;SDS011;8655;57.106;-2.088;2024-02-04T17:44:57;0.20;;;0.20;;
17079;SDS011;8655;57.106;-2.088;2024-02-04T17:47:23;0.30;;;0.30;;